Time;durP1;ratioP1;P1;durP2;ratioP2;P2;SDS_P1;SDS_P2;PMS_P1;PMS_P2;Temp;Humidity;BMP_temperature;BMP_pressure;BME280_temperature;BME280_humidity;BME280_pressure;Samples;Min_cycle;Max_cycle;Signal;HPM_P1;HPM_P2
2023/04/17 00:00:00;;;;;;;;;;;8.20;99.90;8.70;99904.00;;;;336754;28;83222;-89
2023/04/17 00:00:12;;;;;;;;;;;8.20;99.90;8.70;99910.00;;;;337627;28;92210;-89
2023/04/17 00:00:24;;;;;;;;;;;8.20;99.90;8.70;99902.00;;;;336813;28;83392;-89
2023/04/17 00:00:36;;;;;;;;;;;8.20;99.90;8.70;99900.00;;;;335005;29;90517;-89
2023/04/17 00:00:49;;;;;;;;;;;8.20;99.90;8.70;99907.00;;;;335500;29;82487;-89
2023/04/17 00:01:02;;;;;;;;;;;8.20;99.90;8.70;99905.00;;;;339083;28;91442;-89
2023/04/17 00:01:14;;;;;;;;;;;8.20;99.90;8.70;99911.00;;;;335539;29;83451;-89
2023/04/17 00:01:26;;;;;;;;;;;8.20;99.90;8.60;99905.00;;;;337791;28;91179;-89
2023/04/17 00:01:38;;;;;;;;;;;8.20;99.90;8.70;99901.00;;;;339450;28;82494;-88
2023/04/17 00:01:50;;;;;;;;;;;8.30;99.90;8.70;99915.00;;;;336398;28;91243;-89
2023/04/17 00:02:03;;;;;;;;;;;8.20;99.90;8.70;99917.00;;;;339468;28;83441;-89
2023/04/17 00:02:15;;;;;;;;;;;8.20;99.90;8.70;99911.00;;;;337671;28;92373;-89
2023/04/17 00:02:28;;;;;;;;;;;8.20;99.90;8.70;99897.00;;;;338176;28;82513;-89
2023/04/17 00:02:40;;;;;;;;;;;8.20;99.90;8.70;99917.00;;;;337706;28;91749;-90
2023/04/17 00:02:52;;;;;;;;;;;8.20;99.90;8.70;99906.00;;;;335480;29;83526;-89
2023/04/17 00:03:04;;;;;;;;;;;8.20;99.90;8.70;99909.00;;;;336458;28;88767;-89
2023/04/17 00:03:17;;;;;;;;;;;8.20;99.90;8.70;99909.00;;;;338128;28;84150;-89
2023/04/17 00:03:30;;;;;;;;;;;8.20;99.90;8.70;99903.00;;;;335112;29;91986;-89
2023/04/17 00:03:43;;;;;;;;;;;8.20;99.90;8.60;99917.00;;;;338187;28;83458;-89
2023/04/17 00:03:56;;;;;;;;;;;8.30;99.90;8.60;99908.00;;;;335140;29;90175;-89
2023/04/17 00:04:09;;;;;;;;;;;8.20;99.90;8.70;99912.00;;;;334343;29;83715;-89
2023/04/17 00:04:22;;;;;;;;;;;8.20;99.90;8.70;99910.00;;;;337479;28;90539;-89
2023/04/17 00:04:35;;;;;;;;;;;8.20;99.90;8.70;99905.00;;;;339391;28;83444;-89
2023/04/17 00:04:48;;;;;;;;;;;8.30;99.90;8.70;99910.00;;;;337737;28;91355;-89
2023/04/17 00:05:00;;;;;;;;;;;8.20;99.90;8.70;99910.00;;;;336849;28;82551;-89
2023/04/17 00:05:12;;;;;;;;;;;8.20;99.90;8.60;99908.00;;;;337606;28;91907;-89
2023/04/17 00:05:25;;;;;;;;;;;8.20;99.90;8.60;99902.00;;;;339118;28;83617;-89
2023/04/17 00:05:37;;;;;;;;;;;8.20;99.90;8.60;99913.00;;;;335103;29;91802;-89
2023/04/17 00:05:49;;;;;;;;;;;8.20;99.90;8.60;99908.00;;;;336820;28;83230;-89
2023/04/17 00:06:01;;;;;;;;;;;8.20;99.90;8.70;99909.00;;;;336161;28;86799;-89
2023/04/17 00:06:13;;;;;;;;;;;8.20;99.90;8.70;99912.00;;;;336791;28;83394;-89
2023/04/17 00:06:25;;;;;;;;;;;8.20;99.90;8.70;99912.00;;;;336380;28;90949;-89
2023/04/17 00:06:38;;;;;;;;;;;8.20;99.90;8.70;99913.00;;;;338109;28;82536;-89
2023/04/17 00:06:52;;;;;;;;;;;8.20;99.90;8.70;99917.00;;;;337729;28;91335;-89
2023/04/17 00:07:05;;;;;;;;;;;8.20;99.90;8.70;99917.00;;;;336828;28;82612;-89
2023/04/17 00:07:21;;;;;;;;;;;8.20;99.90;8.70;99910.00;;;;338842;28;90655;-89
2023/04/17 00:07:37;;;;;;;;;;;8.30;99.90;8.60;99923.00;;;;336754;28;83376;-89
2023/04/17 00:07:49;;;;;;;;;;;8.20;99.90;8.60;99911.00;;;;337638;28;90785;-89
2023/04/17 00:08:01;;;;;;;;;;;8.20;99.90;8.60;99909.00;;;;338079;28;82674;-89
2023/04/17 00:08:13;;;;;;;;;;;8.20;99.90;8.70;99917.00;;;;336352;28;91562;-89
2023/04/17 00:08:25;;;;;;;;;;;8.20;99.90;8.70;99908.00;;;;336841;28;82446;-89
2023/04/17 00:08:37;;;;;;;;;;;8.20;99.90;8.70;99908.00;;;;338909;28;91355;-89
2023/04/17 00:08:49;;;;;;;;;;;8.30;99.90;8.60;99913.00;;;;336765;28;83335;-89
2023/04/17 00:09:01;;;;;;;;;;;8.20;99.90;8.70;99914.00;;;;336363;28;90937;-89
2023/04/17 00:09:13;;;;;;;;;;;8.20;99.90;8.70;99906.00;;;;336717;28;82372;-89
2023/04/17 00:09:25;;;;;;;;;;;8.20;99.90;8.70;99907.00;;;;336291;28;92633;-89
2023/04/17 00:09:37;;;;;;;;;;;8.20;99.90;8.60;99906.00;;;;334188;29;82575;-89
2023/04/17 00:09:49;;;;;;;;;;;8.20;99.90;8.70;99915.00;;;;336373;28;91437;-89
2023/04/17 00:10:01;;;;;;;;;;;8.20;99.90;8.70;99909.00;;;;336816;28;82519;-90
2023/04/17 00:10:12;;;;;;;;;;;8.20;99.90;8.70;99912.00;;;;336373;28;89176;-89
2023/04/17 00:10:24;;;;;;;;;;;8.20;99.90;8.70;99901.00;;;;335558;29;83286;-89
2023/04/17 00:10:36;;;;;;;;;;;8.30;99.90;8.70;99916.00;;;;336234;28;91937;-90
2023/04/17 00:10:48;;;;;;;;;;;8.20;99.90;8.70;99911.00;;;;336776;28;83434;-89
2023/04/17 00:11:17;;;;;;;;;;;8.30;99.90;8.60;99914.00;;;;336314;28;91532;-89
2023/04/17 00:11:29;;;;;;;;;;;8.20;99.90;8.70;99908.00;;;;339205;28;83657;-89
2023/04/17 00:11:41;;;;;;;;;;;8.20;99.90;8.70;99912.00;;;;337497;28;90755;-89
2023/04/17 00:11:53;;;;;;;;;;;8.20;99.90;8.70;99911.00;;;;338077;28;83525;-89
2023/04/17 00:12:05;;;;;;;;;;;8.20;99.90;8.70;99912.00;;;;334887;29;90670;-89
2023/04/17 00:12:17;;;;;;;;;;;8.20;99.90;8.70;99913.00;;;;336756;28;82520;-89
2023/04/17 00:12:29;;;;;;;;;;;8.30;99.90;8.70;99911.00;;;;336336;28;91485;-89
2023/04/17 00:12:40;;;;;;;;;;;8.20;99.90;8.70;99910.00;;;;336819;28;83373;-89
2023/04/17 00:12:52;;;;;;;;;;;8.20;99.90;8.60;99909.00;;;;336319;28;91293;-89
2023/04/17 00:13:04;;;;;;;;;;;8.20;99.90;8.70;99904.00;;;;336586;28;83559;-89
2023/04/17 00:13:16;;;;;;;;;;;8.30;99.90;8.70;99903.00;;;;336260;28;90647;-89
2023/04/17 00:13:28;;;;;;;;;;;8.30;99.90;8.80;99907.00;;;;338237;28;83406;-90
2023/04/17 00:13:40;;;;;;;;;;;8.30;99.90;8.80;99907.00;;;;337745;28;89101;-89
2023/04/17 00:13:51;;;;;;;;;;;8.30;99.90;8.70;99899.00;;;;338101;28;83394;-89
2023/04/17 00:14:04;;;;;;;;;;;8.30;99.90;8.70;99908.00;;;;337749;28;90294;-89
2023/04/17 00:14:16;;;;;;;;;;;8.30;99.90;8.70;99905.00;;;;336757;28;82572;-89
2023/04/17 00:14:28;;;;;;;;;;;8.30;99.90;8.70;99908.00;;;;337744;28;91706;-89
2023/04/17 00:14:40;;;;;;;;;;;8.30;99.90;8.70;99907.00;;;;338098;28;83450;-89
2023/04/17 00:14:51;;;;;;;;;;;8.30;99.90;8.70;99907.00;;;;336267;28;92466;-89
2023/04/17 00:15:04;;;;;;;;;;;8.30;99.90;8.80;99916.00;;;;338144;28;83474;-89
2023/04/17 00:15:15;;;;;;;;;;;8.30;99.90;8.80;99911.00;;;;335017;29;90870;-89
2023/04/17 00:15:27;;;;;;;;;;;8.30;99.90;8.80;99907.00;;;;335473;29;82509;-89
2023/04/17 00:15:39;;;;;;;;;;;8.30;99.90;8.80;99909.00;;;;336332;28;91582;-89
2023/04/17 00:15:51;;;;;;;;;;;8.30;99.90;8.70;99908.00;;;;335499;29;83363;-89
2023/04/17 00:16:03;;;;;;;;;;;8.30;99.90;8.80;99904.00;;;;336374;28;91470;-89
2023/04/17 00:16:15;;;;;;;;;;;8.30;99.90;8.80;99914.00;;;;334154;29;83491;-89
2023/04/17 00:16:27;;;;;;;;;;;8.30;99.90;8.80;99909.00;;;;337524;28;90498;-89
2023/04/17 00:16:39;;;;;;;;;;;8.30;99.90;8.80;99913.00;;;;336665;28;82582;-89
2023/04/17 00:16:51;;;;;;;;;;;8.30;99.90;8.70;99908.00;;;;336276;28;92665;-89
2023/04/17 00:17:03;;;;;;;;;;;8.30;99.90;8.80;99917.00;;;;338081;28;83531;-89
2023/04/17 00:17:15;;;;;;;;;;;8.30;99.90;8.80;99912.00;;;;337649;28;90398;-89
2023/04/17 00:17:26;;;;;;;;;;;8.30;99.90;8.70;99913.00;;;;338075;28;83482;-89
2023/04/17 00:17:38;;;;;;;;;;;8.30;99.90;8.70;99911.00;;;;336087;28;90487;-90
2023/04/17 00:17:50;;;;;;;;;;;8.30;99.90;8.70;99911.00;;;;339467;28;83400;-89
2023/04/17 00:18:02;;;;;;;;;;;8.30;99.90;8.80;99901.00;;;;337639;28;91862;-89
2023/04/17 00:18:14;;;;;;;;;;;8.30;99.90;8.70;99915.00;;;;335457;29;83486;-90
2023/04/17 00:18:26;;;;;;;;;;;8.30;99.90;8.70;99907.00;;;;337645;28;91683;-89
2023/04/17 00:18:38;;;;;;;;;;;8.30;99.90;8.70;99925.00;;;;336585;28;83514;-89
2023/04/17 00:18:50;;;;;;;;;;;8.30;99.90;8.70;99913.00;;;;335109;29;92709;-89
2023/04/17 00:19:02;;;;;;;;;;;8.30;99.90;8.80;99909.00;;;;336800;28;83342;-90
2023/04/17 00:19:14;;;;;;;;;;;8.30;99.90;8.70;99909.00;;;;337515;28;89513;-89
2023/04/17 00:19:26;;;;;;;;;;;8.30;99.90;8.80;99906.00;;;;339410;28;82597;-90
2023/04/17 00:19:38;;;;;;;;;;;8.30;99.90;8.80;99910.00;;;;337614;28;91007;-89
2023/04/17 00:19:49;;;;;;;;;;;8.30;99.90;8.70;99906.00;;;;336736;28;83352;-89
2023/04/17 00:20:06;;;;;;;;;;;8.30;99.90;8.80;99910.00;;;;336251;28;91960;-89
2023/04/17 00:20:18;;;;;;;;;;;8.30;99.90;8.80;99911.00;;;;335432;29;83483;-89
2023/04/17 00:20:30;;;;;;;;;;;8.30;99.90;8.80;99916.00;;;;336398;28;91920;-90
2023/04/17 00:20:42;;;;;;;;;;;8.30;99.90;8.80;99911.00;;;;335416;29;83355;-89
2023/04/17 00:20:55;;;;;;;;;;;8.30;99.90;8.80;99912.00;;;;336303;28;91573;-89
2023/04/17 00:21:07;;;;;;;;;;;8.30;99.90;8.80;99911.00;;;;334183;29;83294;-89
2023/04/17 00:21:19;;;;;;;;;;;8.30;99.90;8.70;99911.00;;;;335060;29;90324;-89
2023/04/17 00:21:31;;;;;;;;;;;8.30;99.90;8.70;99899.00;;;;338109;28;83303;-90
2023/04/17 00:21:43;;;;;;;;;;;8.30;99.90;8.70;99909.00;;;;334948;29;90173;-89
2023/04/17 00:21:55;;;;;;;;;;;8.30;99.90;8.70;99913.00;;;;338121;28;83365;-89
2023/04/17 00:22:07;;;;;;;;;;;8.30;99.90;8.70;99909.00;;;;337632;28;91815;-89
2023/04/17 00:22:19;;;;;;;;;;;8.30;99.90;8.80;99920.00;;;;338092;28;83477;-89
2023/04/17 00:22:32;;;;;;;;;;;8.30;99.90;8.80;99910.00;;;;336338;28;90808;-89
2023/04/17 00:22:44;;;;;;;;;;;8.30;99.90;8.80;99908.00;;;;339511;28;82477;-89
2023/04/17 00:22:56;;;;;;;;;;;8.30;99.90;8.80;99903.00;;;;337627;28;92398;-89
2023/04/17 00:23:08;;;;;;;;;;;8.30;99.90;8.80;99906.00;;;;338101;28;82469;-89
2023/04/17 00:23:20;;;;;;;;;;;8.30;99.90;8.70;99914.00;;;;336294;28;91940;-89
2023/04/17 00:23:32;;;;;;;;;;;8.30;99.90;8.80;99909.00;;;;338083;28;83419;-89
2023/04/17 00:23:44;;;;;;;;;;;8.30;99.90;8.80;99907.00;;;;337597;28;92183;-89
2023/04/17 00:23:57;;;;;;;;;;;8.30;99.90;8.80;99907.00;;;;336565;28;82602;-89
2023/04/17 00:24:08;;;;;;;;;;;8.30;99.90;8.80;99910.00;;;;336397;28;91439;-89
2023/04/17 00:24:20;;;;;;;;;;;8.30;99.90;8.80;99903.00;;;;338148;28;83351;-89
2023/04/17 00:24:32;;;;;;;;;;;8.30;99.90;8.80;99898.00;;;;336301;28;91811;-89
2023/04/17 00:24:44;;;;;;;;;;;8.40;99.90;8.80;99906.00;;;;334233;29;82543;-89
2023/04/17 00:24:56;;;;;;;;;;;8.30;99.90;8.80;99906.00;;;;334965;29;91437;-89
2023/04/17 00:25:11;;;;;;;;;;;8.40;99.90;8.80;99906.00;;;;339408;28;82506;-89
2023/04/17 00:25:23;;;;;;;;;;;8.40;99.90;8.80;99901.00;;;;335061;29;90484;-90
2023/04/17 00:25:35;;;;;;;;;;;8.40;99.90;8.70;99900.00;;;;338058;28;83447;-89
2023/04/17 00:25:47;;;;;;;;;;;8.40;99.90;8.70;99910.00;;;;337696;28;91276;-89
2023/04/17 00:25:59;;;;;;;;;;;8.30;99.90;8.70;99906.00;;;;336739;28;82562;-89
2023/04/17 00:26:11;;;;;;;;;;;8.30;99.90;8.70;99908.00;;;;333791;29;90777;-89
2023/04/17 00:26:23;;;;;;;;;;;8.30;99.90;8.70;99905.00;;;;335513;29;83407;-89
2023/04/17 00:26:35;;;;;;;;;;;8.30;99.90;8.80;99903.00;;;;337622;28;91515;-89
2023/04/17 00:26:46;;;;;;;;;;;8.30;99.90;8.80;99906.00;;;;335480;29;83394;-89
2023/04/17 00:26:58;;;;;;;;;;;8.30;99.90;8.80;99902.00;;;;333731;29;92430;-89
2023/04/17 00:27:10;;;;;;;;;;;8.30;99.90;8.80;99897.00;;;;336761;28;82487;-88
2023/04/17 00:27:22;;;;;;;;;;;8.30;99.90;8.80;99902.00;;;;336345;28;91428;-89
2023/04/17 00:27:34;;;;;;;;;;;8.30;99.90;8.70;99905.00;;;;338090;28;82541;-89
2023/04/17 00:27:46;;;;;;;;;;;8.30;99.90;8.70;99901.00;;;;335088;29;91362;-89
2023/04/17 00:27:58;;;;;;;;;;;8.30;99.90;8.80;99901.00;;;;335428;29;83372;-89
2023/04/17 00:28:09;;;;;;;;;;;8.30;99.90;8.70;99903.00;;;;336348;28;90418;-89
2023/04/17 00:28:22;;;;;;;;;;;8.30;99.90;8.80;99907.00;;;;338027;28;83367;-89
2023/04/17 00:28:34;;;;;;;;;;;8.30;99.90;8.80;99901.00;;;;334935;29;91437;-89
2023/04/17 00:28:49;;;;;;;;;;;8.30;99.90;8.80;99896.00;;;;336719;28;83484;-90
2023/04/17 00:29:01;;;;;;;;;;;8.30;99.90;8.80;99887.00;;;;336280;28;93495;-89
2023/04/17 00:29:12;;;;;;;;;;;8.30;99.90;8.80;99900.00;;;;335474;29;83368;-89
2023/04/17 00:29:24;;;;;;;;;;;8.30;99.90;8.80;99896.00;;;;337449;28;90858;-89
2023/04/17 00:29:37;;;;;;;;;;;8.30;99.90;8.80;99912.00;;;;336684;28;83512;-89
2023/04/17 00:29:49;;;;;;;;;;;8.30;99.90;8.80;99901.00;;;;336376;28;91217;-90
2023/04/17 00:30:00;;;;;;;;;;;8.40;99.90;8.80;99902.00;;;;335268;29;82425;-89
2023/04/17 00:30:12;;;;;;;;;;;8.40;99.90;8.80;99897.00;;;;337674;28;92416;-89
2023/04/17 00:30:24;;;;;;;;;;;8.40;99.90;8.80;99900.00;;;;335641;29;83296;-89
2023/04/17 00:30:36;;;;;;;;;;;8.40;99.90;8.80;99898.00;;;;336094;28;89782;-89
2023/04/17 00:30:48;;;;;;;;;;;8.40;99.90;8.80;99901.00;;;;336795;28;83238;-89
2023/04/17 00:31:00;;;;;;;;;;;8.40;99.90;8.80;99902.00;;;;336265;28;92577;-89
2023/04/17 00:31:12;;;;;;;;;;;8.40;99.90;8.80;99902.00;;;;336743;28;83777;-89
2023/04/17 00:31:24;;;;;;;;;;;8.40;99.90;8.80;99898.00;;;;335032;28;91580;-89
2023/04/17 00:31:36;;;;;;;;;;;8.40;99.90;8.80;99893.00;;;;336755;28;83384;-89
2023/04/17 00:31:47;;;;;;;;;;;8.40;99.90;8.80;99900.00;;;;335044;29;91863;-89
2023/04/17 00:32:00;;;;;;;;;;;8.40;99.90;8.80;99900.00;;;;339133;28;83495;-89
2023/04/17 00:32:12;;;;;;;;;;;8.40;99.90;8.90;99898.00;;;;339006;28;91230;-89
2023/04/17 00:32:24;;;;;;;;;;;8.40;99.90;8.80;99902.00;;;;335524;29;83369;-89
2023/04/17 00:32:35;;;;;;;;;;;8.40;99.90;8.80;99900.00;;;;337598;28;91726;-89
2023/04/17 00:32:47;;;;;;;;;;;8.40;99.90;8.80;99893.00;;;;339363;28;83495;-89
2023/04/17 00:32:59;;;;;;;;;;;8.40;99.90;8.80;99896.00;;;;334916;29;92416;-89
2023/04/17 00:33:11;;;;;;;;;;;8.40;99.90;8.80;99899.00;;;;336771;28;83461;-89
2023/04/17 00:33:23;;;;;;;;;;;8.40;99.90;8.80;99889.00;;;;337663;28;91518;-89
2023/04/17 00:33:35;;;;;;;;;;;8.40;99.90;8.90;99892.00;;;;336653;28;83492;-89
2023/04/17 00:33:47;;;;;;;;;;;8.40;99.90;8.90;99888.00;;;;336296;28;91696;-89
2023/04/17 00:34:00;;;;;;;;;;;8.40;99.90;8.80;99895.00;;;;337991;28;83203;-89
2023/04/17 00:34:12;;;;;;;;;;;8.40;99.90;8.80;99896.00;;;;337671;28;90541;-89
2023/04/17 00:34:24;;;;;;;;;;;8.40;99.90;8.90;99891.00;;;;336834;28;82443;-89
2023/04/17 00:34:36;;;;;;;;;;;8.40;99.90;8.90;99895.00;;;;336226;28;92147;-89
2023/04/17 00:34:51;;;;;;;;;;;8.40;99.90;9.00;99900.00;;;;336728;28;82579;-90
2023/04/17 00:35:06;;;;;;;;;;;8.40;99.90;8.90;99891.00;;;;337371;28;90264;-89
2023/04/17 00:35:18;;;;;;;;;;;8.40;99.90;8.90;99890.00;;;;338103;28;83219;-89
2023/04/17 00:35:30;;;;;;;;;;;8.40;99.90;8.90;99886.00;;;;336427;28;89138;-89
2023/04/17 00:35:42;;;;;;;;;;;8.40;99.90;8.90;99903.00;;;;338153;28;83355;-89
2023/04/17 00:35:53;;;;;;;;;;;8.40;99.90;8.90;99893.00;;;;337576;28;90404;-88
2023/04/17 00:36:06;;;;;;;;;;;8.50;99.90;8.80;99900.00;;;;339384;28;82522;-89
2023/04/17 00:36:18;;;;;;;;;;;8.40;99.90;8.80;99890.00;;;;336468;28;89156;-90
2023/04/17 00:36:30;;;;;;;;;;;8.40;99.90;8.90;99896.00;;;;335515;29;83369;-90
2023/04/17 00:36:42;;;;;;;;;;;8.50;99.90;8.90;99886.00;;;;335003;28;90677;-88
2023/04/17 00:36:54;;;;;;;;;;;8.50;99.90;8.80;99897.00;;;;338114;28;82361;-90
2023/04/17 00:37:06;;;;;;;;;;;8.40;99.90;8.80;99892.00;;;;337565;28;93122;-89
2023/04/17 00:37:18;;;;;;;;;;;8.40;99.90;8.80;99892.00;;;;335376;29;83448;-89
2023/04/17 00:37:29;;;;;;;;;;;8.40;99.90;8.80;99891.00;;;;337742;28;91347;-89
2023/04/17 00:37:41;;;;;;;;;;;8.40;99.90;8.80;99895.00;;;;336724;28;83494;-89
2023/04/17 00:37:53;;;;;;;;;;;8.40;99.90;8.70;99889.00;;;;335034;29;90694;-89
2023/04/17 00:38:07;;;;;;;;;;;8.40;99.90;8.70;99900.00;;;;338021;28;83498;-89
2023/04/17 00:38:19;;;;;;;;;;;8.40;99.90;8.70;99895.00;;;;337710;28;91538;-89
2023/04/17 00:38:31;;;;;;;;;;;8.40;99.90;8.70;99898.00;;;;336809;28;82403;-89
2023/04/17 00:38:43;;;;;;;;;;;8.40;99.90;8.80;99898.00;;;;337647;28;91962;-89
2023/04/17 00:38:55;;;;;;;;;;;8.40;99.90;8.80;99892.00;;;;338078;28;82344;-89
2023/04/17 00:39:07;;;;;;;;;;;8.40;99.90;8.90;99895.00;;;;336354;28;90121;-89
2023/04/17 00:39:19;;;;;;;;;;;8.40;99.90;8.80;99892.00;;;;336695;28;83405;-88
2023/04/17 00:39:31;;;;;;;;;;;8.30;99.90;8.80;99882.00;;;;337626;28;91436;-89
2023/04/17 00:39:43;;;;;;;;;;;8.40;99.90;8.80;99887.00;;;;337767;28;82561;-89
2023/04/17 00:39:54;;;;;;;;;;;8.40;99.90;8.80;99894.00;;;;336049;28;90676;-89
2023/04/17 00:40:07;;;;;;;;;;;8.40;99.90;8.80;99894.00;;;;336723;28;82585;-89
2023/04/17 00:40:19;;;;;;;;;;;8.40;99.90;8.80;99891.00;;;;335028;29;91451;-89
2023/04/17 00:40:30;;;;;;;;;;;8.40;99.90;8.90;99893.00;;;;335493;29;83387;-89
2023/04/17 00:40:44;;;;;;;;;;;8.40;99.90;8.90;99891.00;;;;336374;28;91749;-89
2023/04/17 00:40:56;;;;;;;;;;;8.40;99.90;8.90;99885.00;;;;338015;28;83506;-90
2023/04/17 00:41:08;;;;;;;;;;;8.40;99.90;8.90;99892.00;;;;336199;28;92944;-89
2023/04/17 00:41:20;;;;;;;;;;;8.40;99.90;8.90;99900.00;;;;335442;29;83491;-89
2023/04/17 00:41:31;;;;;;;;;;;8.40;99.90;8.90;99895.00;;;;336294;28;91410;-89
2023/04/17 00:41:43;;;;;;;;;;;8.40;99.90;8.90;99893.00;;;;338092;28;82611;-89
2023/04/17 00:41:56;;;;;;;;;;;8.40;99.90;8.90;99883.00;;;;336062;28;90387;-89
2023/04/17 00:42:08;;;;;;;;;;;8.40;99.90;8.90;99888.00;;;;335465;29;83510;-89
2023/04/17 00:42:19;;;;;;;;;;;8.40;99.90;8.90;99893.00;;;;336357;28;91647;-89
2023/04/17 00:42:32;;;;;;;;;;;8.40;99.90;8.80;99896.00;;;;336731;28;83370;-89
2023/04/17 00:42:44;;;;;;;;;;;8.40;99.90;8.90;99886.00;;;;337599;28;91279;-89
2023/04/17 00:43:02;;;;;;;;;;;8.50;99.90;8.90;99893.00;;;;339331;28;83565;-89
2023/04/17 00:43:14;;;;;;;;;;;8.40;99.90;8.90;99890.00;;;;334898;29;92491;-89
2023/04/17 00:43:26;;;;;;;;;;;8.40;99.90;8.90;99893.00;;;;336780;28;83432;-89
2023/04/17 00:43:38;;;;;;;;;;;8.50;99.90;8.90;99887.00;;;;337726;28;89132;-89
2023/04/17 00:43:50;;;;;;;;;;;8.40;99.90;8.80;99901.00;;;;336714;28;83208;-88
2023/04/17 00:44:01;;;;;;;;;;;8.40;99.90;8.90;99890.00;;;;338965;28;88776;-89
2023/04/17 00:44:13;;;;;;;;;;;8.40;99.90;8.90;99882.00;;;;338052;28;83486;-89
2023/04/17 00:44:25;;;;;;;;;;;8.50;99.90;8.90;99893.00;;;;335131;29;91718;-89
2023/04/17 00:44:37;;;;;;;;;;;8.50;99.90;8.90;99886.00;;;;338112;28;83311;-89
2023/04/17 00:44:50;;;;;;;;;;;8.50;99.90;8.90;99890.00;;;;338923;28;91470;-89
2023/04/17 00:45:03;;;;;;;;;;;8.50;99.90;8.90;99888.00;;;;336853;28;82376;-89
2023/04/17 00:45:15;;;;;;;;;;;8.50;99.90;8.90;99901.00;;;;338843;28;92188;-88
2023/04/17 00:45:27;;;;;;;;;;;8.50;99.90;8.90;99892.00;;;;338029;28;83506;-89
2023/04/17 00:45:40;;;;;;;;;;;8.40;99.90;8.90;99888.00;;;;335046;29;90526;-90
2023/04/17 00:45:52;;;;;;;;;;;8.50;99.90;8.80;99897.00;;;;336717;28;82592;-89
2023/04/17 00:46:04;;;;;;;;;;;8.50;99.90;8.80;99888.00;;;;336468;28;87759;-89
2023/04/17 00:46:16;;;;;;;;;;;8.50;99.90;8.90;99893.00;;;;336726;28;83414;-89
2023/04/17 00:46:29;;;;;;;;;;;8.50;99.90;8.90;99886.00;;;;336352;28;91752;-89
2023/04/17 00:46:41;;;;;;;;;;;8.50;99.90;8.90;99892.00;;;;335346;29;83267;-90
2023/04/17 00:46:52;;;;;;;;;;;8.50;99.90;8.90;99888.00;;;;336344;28;90876;-90
2023/04/17 00:47:04;;;;;;;;;;;8.50;99.90;8.90;99898.00;;;;335427;29;83365;-89
2023/04/17 00:47:16;;;;;;;;;;;8.50;99.90;8.90;99877.00;;;;336201;28;92944;-89
2023/04/17 00:47:28;;;;;;;;;;;8.50;99.90;8.90;99890.00;;;;336775;28;83351;-89
2023/04/17 00:47:40;;;;;;;;;;;8.50;99.90;8.90;99885.00;;;;337444;28;90743;-90
2023/04/17 00:47:52;;;;;;;;;;;8.50;99.90;8.90;99892.00;;;;340769;28;83409;-89
2023/04/17 00:48:05;;;;;;;;;;;8.50;99.90;8.90;99890.00;;;;336379;28;88799;-89
2023/04/17 00:48:17;;;;;;;;;;;8.50;99.90;8.90;99884.00;;;;339191;28;83565;-89
2023/04/17 00:48:29;;;;;;;;;;;8.50;99.90;8.90;99887.00;;;;335075;29;89384;-89
2023/04/17 00:48:41;;;;;;;;;;;8.50;99.90;8.90;99882.00;;;;339100;28;82648;-89
2023/04/17 00:48:53;;;;;;;;;;;8.50;99.90;8.90;99887.00;;;;337674;28;88575;-89
2023/04/17 00:49:05;;;;;;;;;;;8.50;99.90;8.90;99877.00;;;;336829;28;82348;-89
2023/04/17 00:49:17;;;;;;;;;;;8.50;99.90;8.90;99884.00;;;;335020;29;88804;-89
2023/04/17 00:49:29;;;;;;;;;;;8.50;99.90;8.90;99878.00;;;;335427;29;83428;-89
2023/04/17 00:49:40;;;;;;;;;;;8.50;99.90;8.80;99888.00;;;;336323;28;90785;-88
2023/04/17 00:49:52;;;;;;;;;;;8.50;99.90;8.90;99884.00;;;;335394;29;83488;-89
2023/04/17 00:50:05;;;;;;;;;;;8.50;99.90;8.90;99884.00;;;;337433;28;90278;-89
2023/04/17 00:50:17;;;;;;;;;;;8.50;99.90;8.90;99881.00;;;;335434;29;83480;-89
2023/04/17 00:50:29;;;;;;;;;;;8.50;99.90;8.90;99881.00;;;;336405;28;88711;-89
2023/04/17 00:50:41;;;;;;;;;;;8.50;99.90;8.90;99885.00;;;;338004;28;82516;-89
2023/04/17 00:50:54;;;;;;;;;;;8.50;99.90;8.90;99891.00;;;;336393;28;89167;-89
2023/04/17 00:51:05;;;;;;;;;;;8.50;99.90;8.90;99890.00;;;;336903;28;82489;-90
2023/04/17 00:51:17;;;;;;;;;;;8.50;99.90;8.90;99873.00;;;;336397;28;90039;-90
2023/04/17 00:51:30;;;;;;;;;;;8.50;99.90;8.90;99886.00;;;;335570;29;83471;-89
2023/04/17 00:51:42;;;;;;;;;;;8.50;99.90;8.90;99886.00;;;;337777;28;90582;-89
2023/04/17 00:51:54;;;;;;;;;;;8.50;99.90;8.90;99889.00;;;;336822;28;83481;-89
2023/04/17 00:52:05;;;;;;;;;;;8.50;99.90;8.90;99884.00;;;;336561;28;91366;-89
2023/04/17 00:52:28;;;;;;;;;;;8.50;99.90;8.90;99882.00;;;;337079;28;82400;-89
2023/04/17 00:52:40;;;;;;;;;;;8.50;99.90;8.80;99887.00;;;;339220;28;90302;-89
2023/04/17 00:52:52;;;;;;;;;;;8.50;99.90;8.80;99880.00;;;;334404;29;83469;-89
2023/04/17 00:53:04;;;;;;;;;;;8.50;99.90;8.80;99878.00;;;;335281;28;88799;-89
2023/04/17 00:53:16;;;;;;;;;;;8.50;99.90;8.90;99881.00;;;;334405;29;83375;-89
2023/04/17 00:53:29;;;;;;;;;;;8.50;99.90;8.90;99886.00;;;;332946;29;92454;-89
2023/04/17 00:53:41;;;;;;;;;;;8.50;99.90;8.90;99885.00;;;;334624;29;83431;-89
2023/04/17 00:53:53;;;;;;;;;;;8.50;99.90;8.90;99873.00;;;;334097;29;91827;-90
2023/04/17 00:54:05;;;;;;;;;;;8.50;99.90;8.80;99877.00;;;;334351;29;83603;-88
2023/04/17 00:54:18;;;;;;;;;;;8.50;99.90;8.80;99880.00;;;;334069;29;91472;-89
2023/04/17 00:54:30;;;;;;;;;;;8.50;99.90;8.80;99881.00;;;;335805;29;83369;-89
2023/04/17 00:54:42;;;;;;;;;;;8.40;99.90;8.80;99889.00;;;;335232;29;87480;-89
2023/04/17 00:54:54;;;;;;;;;;;8.50;99.90;8.90;99869.00;;;;335615;29;83448;-89
2023/04/17 00:55:06;;;;;;;;;;;8.40;99.90;8.90;99874.00;;;;337777;28;92031;-89
2023/04/17 00:55:18;;;;;;;;;;;8.50;99.90;8.90;99877.00;;;;335667;29;82569;-89
2023/04/17 00:55:30;;;;;;;;;;;8.50;99.90;8.90;99886.00;;;;335195;29;91402;-89
2023/04/17 00:55:42;;;;;;;;;;;8.50;99.90;8.90;99887.00;;;;334328;29;83395;-89
2023/04/17 00:55:54;;;;;;;;;;;8.50;99.90;8.90;99888.00;;;;335211;29;92145;-89
2023/04/17 00:56:06;;;;;;;;;;;8.50;99.90;8.90;99881.00;;;;334309;29;83409;-89
2023/04/17 00:56:18;;;;;;;;;;;8.50;99.90;8.90;99885.00;;;;333840;29;91680;-89
2023/04/17 00:56:30;;;;;;;;;;;8.50;99.90;8.90;99881.00;;;;333139;29;82420;-89
2023/04/17 00:56:42;;;;;;;;;;;8.50;99.90;8.90;99883.00;;;;332784;29;90852;-90
2023/04/17 00:56:55;;;;;;;;;;;8.50;99.90;8.90;99879.00;;;;333217;29;82652;-90
2023/04/17 00:57:07;;;;;;;;;;;8.50;99.90;9.00;99883.00;;;;333968;29;90579;-89
2023/04/17 00:57:18;;;;;;;;;;;8.50;99.90;9.00;99882.00;;;;335781;29;83465;-89
2023/04/17 00:57:30;;;;;;;;;;;8.50;99.90;9.00;99880.00;;;;334087;29;91134;-89
2023/04/17 00:57:42;;;;;;;;;;;8.50;99.90;8.90;99881.00;;;;335877;29;82547;-89
2023/04/17 00:57:55;;;;;;;;;;;8.50;99.90;8.90;99883.00;;;;335370;29;89153;-89
2023/04/17 00:58:06;;;;;;;;;;;8.50;99.90;8.90;99883.00;;;;335589;29;82366;-89
2023/04/17 00:58:18;;;;;;;;;;;8.50;99.90;8.80;99877.00;;;;335004;29;92083;-89
2023/04/17 00:58:30;;;;;;;;;;;8.50;99.90;8.80;99883.00;;;;334198;29;82396;-88
2023/04/17 00:58:42;;;;;;;;;;;8.50;99.90;8.90;99874.00;;;;332450;29;89948;-89
2023/04/17 00:58:55;;;;;;;;;;;8.50;99.90;8.90;99873.00;;;;336737;28;83402;-89
2023/04/17 00:59:07;;;;;;;;;;;8.50;99.90;8.90;99883.00;;;;332404;29;91693;-89
2023/04/17 00:59:18;;;;;;;;;;;8.50;99.90;8.90;99879.00;;;;335364;29;83525;-89
2023/04/17 00:59:31;;;;;;;;;;;8.50;99.90;8.90;99876.00;;;;336280;28;91846;-90
2023/04/17 00:59:43;;;;;;;;;;;8.50;99.90;8.90;99882.00;;;;334084;29;83529;-89
2023/04/17 00:59:55;;;;;;;;;;;8.50;99.90;8.90;99875.00;;;;334916;29;91023;-90
2023/04/17 01:00:08;;;;;;;;;;;8.50;99.90;8.90;99885.00;;;;335404;29;83697;-89
2023/04/17 01:00:20;;;;;;;;;;;8.50;99.90;8.80;99878.00;;;;331236;29;91692;-90
2023/04/17 01:00:32;;;;;;;;;;;8.50;99.90;8.90;99876.00;;;;335307;29;83486;-90
2023/04/17 01:00:44;;;;;;;;;;;8.50;99.90;8.80;99880.00;;;;335053;29;89309;-90
2023/04/17 01:00:56;;;;;;;;;;;8.50;99.90;8.80;99874.00;;;;335207;29;83424;-90
2023/04/17 01:01:08;;;;;;;;;;;8.50;99.90;8.90;99872.00;;;;336288;28;91453;-90
2023/04/17 01:01:21;;;;;;;;;;;8.50;99.90;8.90;99875.00;;;;336662;28;83442;-90
2023/04/17 01:01:33;;;;;;;;;;;8.50;99.90;8.90;99874.00;;;;332366;29;92863;-90
2023/04/17 01:01:45;;;;;;;;;;;8.50;99.90;8.80;99877.00;;;;333996;29;83433;-90
2023/04/17 01:01:57;;;;;;;;;;;8.50;99.90;8.90;99877.00;;;;333402;29;91431;-90
2023/04/17 01:02:09;;;;;;;;;;;8.50;99.90;8.80;99873.00;;;;335179;29;82560;-90